Time;durP1;ratioP1;P1;durP2;ratioP2;P2;SDS_P1;SDS_P2;PMS_P1;PMS_P2;Temp;Humidity;BMP_temperature;BMP_pressure;BME280_temperature;BME280_humidity;BME280_pressure;Samples;Min_cycle;Max_cycle;Signal;HPM_P1;HPM_P2
2022/12/29 00:01:11;;;;;;;3.53;1.88;;;;;;;6.54;92.85;100174.97;7391438;19;20019;-71
2022/12/29 00:03:40;;;;;;;2.60;1.90;;;;;;;6.55;92.47;100168.88;7393082;19;20490;-69
2022/12/29 00:06:11;;;;;;;3.25;1.90;;;;;;;6.53;91.97;100166.25;7391159;19;20086;-70
2022/12/29 00:08:42;;;;;;;2.20;1.52;;;;;;;6.55;92.33;100163.66;7396491;19;20506;-70
2022/12/29 00:11:12;;;;;;;1.98;1.60;;;;;;;6.54;92.34;100156.72;7397883;19;20045;-71
2022/12/29 00:16:22;;;;;;;2.20;1.65;;;;;;;6.57;92.20;100159.25;7398670;19;20019;-71
2022/12/29 00:18:57;;;;;;;3.42;1.88;;;;;;;6.57;92.30;100156.66;7400258;19;20082;-72
2022/12/29 00:35:26;;;;;;;2.67;1.48;;;;;;;6.59;92.03;100144.47;7400227;19;20481;-71
2022/12/29 00:46:02;;;;;;;3.17;1.70;;;;;;;6.65;92.78;100147.00;7399573;19;20010;-70
2022/12/29 00:51:11;;;;;;;2.30;1.45;;;;;;;6.67;92.34;100137.38;7399790;19;20089;-70
2022/12/29 00:53:42;;;;;;;2.25;1.52;;;;;;;6.68;92.65;100144.31;7399510;19;20548;-71
2022/12/29 00:56:11;;;;;;;1.95;1.70;;;;;;;6.68;92.14;100134.78;7398725;19;20045;-70
2022/12/29 00:58:39;;;;;;;2.67;1.80;;;;;;;6.68;91.84;100123.47;7399716;19;20074;-70
2022/12/29 01:01:09;;;;;;;3.58;1.50;;;;;;;6.72;92.72;100129.50;7399677;19;20078;-71
2022/12/29 01:03:40;;;;;;;4.28;1.70;;;;;;;6.73;92.11;100126.00;7399776;19;20022;-71
2022/12/29 01:06:11;;;;;;;3.47;1.45;;;;;;;6.72;91.74;100122.53;7397987;19;20536;-70
2022/12/29 01:08:42;;;;;;;3.63;1.80;;;;;;;6.75;91.39;100122.50;7399103;19;20032;-71
2022/12/29 01:11:10;;;;;;;3.00;1.55;;;;;;;6.76;91.34;100131.16;7397190;19;20039;-71
2022/12/29 01:13:40;;;;;;;2.13;1.40;;;;;;;6.78;89.94;100129.41;7399232;19;20015;-70
2022/12/29 01:16:09;;;;;;;4.03;1.55;;;;;;;6.79;91.65;100125.91;7398305;19;20041;-70
2022/12/29 01:18:38;;;;;;;2.33;1.45;;;;;;;6.81;90.25;100129.34;7398149;19;20408;-70
2022/12/29 01:21:08;;;;;;;2.10;1.38;;;;;;;6.82;91.02;100121.53;7399142;19;20035;-70
2022/12/29 01:23:36;;;;;;;3.30;1.30;;;;;;;6.85;90.88;100118.00;7399273;19;20078;-70
2022/12/29 01:26:15;;;;;;;1.77;1.27;;;;;;;6.84;89.28;100116.28;7396651;19;20014;-70
2022/12/29 01:28:44;;;;;;;4.53;1.45;;;;;;;6.87;89.78;100111.00;7396781;19;20030;-70
2022/12/29 01:31:14;;;;;;;2.13;1.38;;;;;;;6.92;90.00;100117.00;7398245;19;20078;-70
2022/12/29 01:33:43;;;;;;;4.05;1.30;;;;;;;6.94;89.08;100120.44;7398341;19;20078;-70
2022/12/29 01:36:15;;;;;;;1.35;1.20;;;;;;;6.98;89.96;100121.25;7397365;19;20023;-70
2022/12/29 01:38:44;;;;;;;3.13;1.38;;;;;;;6.99;89.12;100120.38;7396053;19;20513;-70
2022/12/29 01:41:17;;;;;;;2.03;1.33;;;;;;;7.01;89.41;100126.41;7396261;19;20090;-71
2022/12/29 01:43:47;;;;;;;1.95;1.20;;;;;;;7.05;88.95;100119.41;7398789;19;20076;-71
2022/12/29 01:46:23;;;;;;;2.25;1.20;;;;;;;7.07;89.64;100113.25;7397137;19;20031;-70
2022/12/29 01:48:55;;;;;;;2.35;1.33;;;;;;;7.11;88.48;100104.50;7398404;19;20014;-70
2022/12/29 01:51:25;;;;;;;1.95;1.45;;;;;;;7.13;88.38;100107.09;7397186;19;20079;-70
2022/12/29 01:53:56;;;;;;;2.50;2.00;;;;;;;7.13;87.66;100104.47;7397525;19;20369;-70
2022/12/29 01:56:27;;;;;;;2.63;1.30;;;;;;;7.20;88.14;100110.44;7396793;19;20074;-70
2022/12/29 01:59:01;;;;;;;3.22;1.52;;;;;;;7.23;87.46;100106.03;7395529;19;20510;-70
2022/12/29 02:01:30;;;;;;;3.90;1.58;;;;;;;7.25;86.87;100091.19;7398170;19;20019;-70
2022/12/29 02:03:58;;;;;;;2.75;1.40;;;;;;;7.27;86.85;100091.19;7397539;19;20082;-70
2022/12/29 02:06:31;;;;;;;2.10;1.58;;;;;;;7.31;87.45;100095.44;7396280;19;20018;-70
2022/12/29 02:09:01;;;;;;;2.03;1.15;;;;;;;7.33;87.33;100093.69;7397861;19;20035;-71
2022/12/29 02:11:33;;;;;;;3.03;1.50;;;;;;;7.35;86.06;100099.72;7396896;19;20086;-70
2022/12/29 02:14:01;;;;;;;1.85;1.00;;;;;;;7.38;86.36;100085.75;7396874;19;20014;-69
2022/12/29 02:16:41;;;;;;;1.60;1.30;;;;;;;7.40;85.72;100089.19;7396007;19;20070;-72
2022/12/29 02:19:46;;;;;;;2.17;1.40;;;;;;;7.44;85.54;100083.03;7396813;19;20031;-74
2022/12/29 02:22:26;;;;;;;2.42;1.33;;;;;;;7.44;84.07;100077.81;7395729;19;20537;-72
2022/12/29 02:25:23;;;;;;;1.58;1.05;;;;;;;7.48;85.17;100076.84;7395596;19;20015;-68
2022/12/29 02:28:00;;;;;;;2.08;1.30;;;;;;;7.51;86.78;100076.81;7395659;19;20086;-68
2022/12/29 02:30:46;;;;;;;3.20;1.38;;;;;;;7.52;81.67;100075.91;7394909;19;20431;-68
2022/12/29 02:33:34;;;;;;;2.92;1.30;;;;;;;7.55;81.78;100077.59;7394726;19;20074;-69
2022/12/29 02:36:13;;;;;;;2.95;1.42;;;;;;;7.59;83.61;100068.81;7395429;19;20018;-69
2022/12/29 02:38:51;;;;;;;2.50;1.05;;;;;;;7.64;80.59;100074.81;7396831;19;20022;-68
2022/12/29 02:41:25;;;;;;;1.98;1.25;;;;;;;7.68;83.79;100068.63;7396784;19;20078;-69
2022/12/29 02:44:02;;;;;;;2.15;1.30;;;;;;;7.73;83.75;100069.38;7394264;19;20436;-69
2022/12/29 02:46:38;;;;;;;1.60;1.10;;;;;;;7.78;82.63;100071.91;7394735;19;20078;-69
2022/12/29 02:49:13;;;;;;;2.20;1.30;;;;;;;7.81;82.36;100070.09;7396618;19;20023;-69
2022/12/29 02:51:53;;;;;;;2.05;1.30;;;;;;;7.85;80.52;100073.50;7395351;19;20492;-68
2022/12/29 02:57:03;;;;;;;2.80;1.45;;;;;;;7.93;82.99;100060.28;7394552;19;20090;-68
2022/12/29 02:59:32;;;;;;;1.88;1.33;;;;;;;7.98;83.00;100058.41;7396080;19;20098;-73
2022/12/29 03:02:20;;;;;;;2.45;1.45;;;;;;;8.00;80.17;100061.88;7396115;19;20082;-71
2022/12/29 03:05:07;;;;;;;2.95;1.35;;;;;;;8.05;80.72;100056.53;7395369;19;20485;-72
2022/12/29 03:07:45;;;;;;;3.40;1.20;;;;;;;8.08;81.52;100048.63;7396249;19;20070;-69
2022/12/29 03:10:25;;;;;;;2.85;1.30;;;;;;;8.12;82.24;100045.03;7395128;19;20082;-69
2022/12/29 03:16:05;;;;;;;1.85;1.40;;;;;;;8.18;82.48;100031.84;7394841;19;20018;-71
2022/12/29 03:18:43;;;;;;;2.00;1.27;;;;;;;8.22;82.96;100041.31;7395225;19;20029;-71
2022/12/29 03:21:17;;;;;;;3.15;1.30;;;;;;;8.23;82.13;100036.97;7394000;19;20086;-70
2022/12/29 03:23:47;;;;;;;2.85;1.30;;;;;;;8.22;82.46;100030.03;7393544;19;20549;-71
2022/12/29 03:26:18;;;;;;;2.40;1.48;;;;;;;8.25;83.30;100025.59;7393490;19;20010;-71
2022/12/29 03:28:53;;;;;;;3.08;1.30;;;;;;;8.26;82.82;100022.06;7393732;19;20086;-71
2022/12/29 03:31:23;;;;;;;3.20;1.60;;;;;;;8.28;82.78;100022.88;7394730;19;20489;-69
2022/12/29 03:33:56;;;;;;;1.48;1.13;;;;;;;8.30;83.54;100022.84;7392662;19;20537;-70
2022/12/29 03:36:30;;;;;;;1.58;1.00;;;;;;;8.29;81.18;100019.38;7393232;19;20027;-70
2022/12/29 03:39:03;;;;;;;1.40;1.20;;;;;;;8.30;82.07;100021.09;7395091;19;20074;-70
2022/12/29 03:41:35;;;;;;;3.97;1.55;;;;;;;8.32;81.61;100021.91;7395189;19;20035;-70
2022/12/29 03:44:04;;;;;;;2.33;1.10;;;;;;;8.34;83.62;100024.50;7402620;19;20078;-71
2022/12/29 03:46:32;;;;;;;2.03;1.20;;;;;;;8.36;83.25;100019.25;7399805;19;20421;-71
2022/12/29 03:49:03;;;;;;;3.10;1.30;;;;;;;8.37;83.70;100018.34;7402064;19;20018;-71
2022/12/29 03:51:32;;;;;;;2.75;1.52;;;;;;;8.37;83.89;100026.19;7402376;19;20031;-70
2022/12/29 03:54:00;;;;;;;2.53;1.30;;;;;;;8.35;83.40;100018.38;7398734;19;20548;-71
2022/12/29 03:56:29;;;;;;;1.98;1.30;;;;;;;8.36;84.45;100017.47;7399975;19;20107;-71
2022/12/29 03:58:57;;;;;;;2.70;1.05;;;;;;;8.36;84.33;100014.84;7401439;19;20553;-71
2022/12/29 04:01:25;;;;;;;2.10;1.60;;;;;;;8.36;83.45;100024.47;7401169;19;20082;-71
2022/12/29 04:03:54;;;;;;;2.15;1.38;;;;;;;8.36;82.78;100014.84;7401493;19;20437;-71
2022/12/29 04:06:26;;;;;;;1.83;1.40;;;;;;;8.36;82.38;100014.00;7398686;19;20074;-71
2022/12/29 04:08:54;;;;;;;2.88;1.60;;;;;;;8.36;82.40;100017.47;7401740;19;20030;-71
2022/12/29 04:11:23;;;;;;;2.05;1.20;;;;;;;8.37;83.10;100028.81;7398144;19;20070;-71
2022/12/29 04:13:51;;;;;;;1.85;1.15;;;;;;;8.37;83.53;100024.41;7398838;19;20091;-71
2022/12/29 04:16:20;;;;;;;5.40;1.50;;;;;;;8.40;83.80;100026.09;7399643;19;20082;-70
2022/12/29 04:18:48;;;;;;;2.72;1.60;;;;;;;8.40;83.74;100026.09;7400755;19;20074;-70
2022/12/29 04:21:17;;;;;;;2.63;1.33;;;;;;;8.40;84.05;100026.09;7400985;19;20430;-70
2022/12/29 04:23:48;;;;;;;2.30;1.30;;;;;;;8.41;84.33;100020.84;7400943;19;20094;-71
2022/12/29 04:26:16;;;;;;;3.20;1.50;;;;;;;8.41;83.70;100026.06;7398366;19;20077;-70
2022/12/29 04:28:45;;;;;;;2.05;1.33;;;;;;;8.41;84.22;100019.97;7400317;19;20031;-70
2022/12/29 04:31:13;;;;;;;1.73;1.30;;;;;;;8.42;84.63;100009.47;7398107;19;20018;-70
2022/12/29 04:33:41;;;;;;;1.90;1.45;;;;;;;8.43;82.79;100023.44;7398504;19;20028;-70
2022/12/29 04:36:10;;;;;;;4.95;1.30;;;;;;;8.43;83.29;100010.34;7398776;19;20085;-70
2022/12/29 04:38:39;;;;;;;2.55;1.40;;;;;;;8.44;83.80;99996.38;7397843;19;20086;-70
2022/12/29 04:41:10;;;;;;;1.63;1.40;;;;;;;8.46;84.23;100003.31;7400002;19;20098;-70
2022/12/29 04:43:38;;;;;;;3.05;1.42;;;;;;;8.47;83.95;100010.25;7400684;19;20083;-70
2022/12/29 04:46:07;;;;;;;3.28;1.42;;;;;;;8.47;84.22;100012.03;7397117;19;20081;-70
2022/12/29 04:48:35;;;;;;;3.85;1.75;;;;;;;8.50;82.86;100017.16;7399543;19;20549;-69
2022/12/29 04:51:04;;;;;;;1.83;1.20;;;;;;;8.53;82.76;100008.38;7399920;19;20077;-71
2022/12/29 04:53:32;;;;;;;4.68;1.48;;;;;;;8.55;83.03;100007.44;7396783;19;20090;-70
2022/12/29 04:56:01;;;;;;;3.58;1.38;;;;;;;8.59;82.27;100009.09;7398241;19;20099;-70
2022/12/29 04:58:32;;;;;;;1.75;1.25;;;;;;;8.62;83.04;100011.63;7399754;19;20021;-70
2022/12/29 05:01:00;;;;;;;8.60;1.95;;;;;;;8.66;82.17;100020.25;7400079;19;20023;-71
2022/12/29 05:03:29;;;;;;;2.42;1.58;;;;;;;8.70;82.74;100016.66;7399260;19;20089;-71
2022/12/29 05:05:58;;;;;;;2.38;1.50;;;;;;;8.73;83.19;100010.50;7398524;19;20014;-70
2022/12/29 05:08:27;;;;;;;1.70;1.48;;;;;;;8.74;82.47;100023.53;7399930;19;20082;-71
2022/12/29 05:10:55;;;;;;;2.25;1.63;;;;;;;8.77;83.23;100012.13;7399411;19;20078;-71
2022/12/29 05:13:24;;;;;;;2.80;1.50;;;;;;;8.76;83.13;99998.19;7398118;19;20094;-71
2022/12/29 05:15:56;;;;;;;1.33;1.20;;;;;;;8.76;82.85;99986.91;7398299;19;20018;-71
2022/12/29 05:18:24;;;;;;;2.20;1.40;;;;;;;8.74;83.19;99978.22;7399556;19;20074;-72
2022/12/29 05:20:53;;;;;;;2.58;1.55;;;;;;;8.77;84.19;99975.50;7396662;19;20070;-71
2022/12/29 05:23:21;;;;;;;1.90;1.35;;;;;;;8.73;84.03;99981.72;7398988;19;20085;-72
2022/12/29 05:25:49;;;;;;;2.30;1.42;;;;;;;8.74;84.23;99988.69;7396927;19;20083;-71
2022/12/29 05:28:18;;;;;;;1.65;1.35;;;;;;;8.74;84.30;99983.44;7398704;19;20420;-71
2022/12/29 05:30:46;;;;;;;6.20;1.60;;;;;;;8.73;84.29;99987.84;7398720;19;20018;-71
2022/12/29 05:33:17;;;;;;;2.30;1.38;;;;;;;8.72;83.87;99987.84;7397504;19;20019;-72
2022/12/29 05:35:46;;;;;;;2.10;1.40;;;;;;;8.72;84.37;99987.84;7397977;19;20098;-71
2022/12/29 05:38:14;;;;;;;2.15;1.40;;;;;;;8.71;83.67;99978.31;7398430;19;20082;-71
2022/12/29 05:40:43;;;;;;;2.53;1.38;;;;;;;8.71;83.26;99978.31;7398026;19;20102;-71
2022/12/29 05:43:11;;;;;;;3.63;1.30;;;;;;;8.70;83.71;99973.97;7397805;19;20376;-71
2022/12/29 05:45:39;;;;;;;3.65;1.60;;;;;;;8.71;84.06;99978.31;7397380;19;20078;-70
2022/12/29 05:48:08;;;;;;;4.60;1.38;;;;;;;8.69;83.29;99983.56;7397612;19;20548;-71
2022/12/29 05:50:39;;;;;;;1.88;1.67;;;;;;;8.68;83.25;99981.88;7397860;19;20018;-72
2022/12/29 05:53:14;;;;;;;3.00;1.50;;;;;;;8.69;83.80;99983.56;7397204;19;20018;-71
2022/12/29 05:55:43;;;;;;;1.60;1.10;;;;;;;8.69;83.19;99982.72;7397444;19;20097;-72
2022/12/29 05:58:11;;;;;;;2.50;1.60;;;;;;;8.69;84.22;99972.25;7397848;19;20019;-70
2022/12/29 06:00:46;;;;;;;2.78;1.30;;;;;;;8.68;82.74;99974.03;7397733;19;20361;-70
2022/12/29 06:03:14;;;;;;;1.70;1.30;;;;;;;8.67;83.88;99969.69;7397186;19;20481;-72
2022/12/29 06:05:47;;;;;;;3.63;1.50;;;;;;;8.66;84.01;99972.31;7393839;19;20081;-70
2022/12/29 06:08:15;;;;;;;2.95;1.40;;;;;;;8.66;84.48;99964.47;7396973;19;20020;-70
2022/12/29 06:10:44;;;;;;;2.78;1.80;;;;;;;8.63;83.39;99968.03;7395380;19;20019;-70
2022/12/29 06:13:12;;;;;;;1.60;1.40;;;;;;;8.63;84.11;99974.13;7396611;19;20023;-70
2022/12/29 06:15:41;;;;;;;2.55;1.40;;;;;;;8.62;83.91;99969.78;7396273;19;20094;-70
2022/12/29 06:18:09;;;;;;;3.38;1.50;;;;;;;8.61;84.07;99968.06;7396994;19;20029;-70
2022/12/29 06:20:38;;;;;;;2.42;1.65;;;;;;;8.61;84.39;99941.09;7396699;19;20033;-71
2022/12/29 06:23:09;;;;;;;2.25;1.60;;;;;;;8.60;84.07;99958.50;7396957;19;20026;-71
2022/12/29 06:25:37;;;;;;;2.92;1.25;;;;;;;8.59;84.06;99961.16;7395282;19;20014;-71
2022/12/29 06:28:06;;;;;;;6.78;1.50;;;;;;;8.57;83.48;99961.22;7396793;19;20021;-70
2022/12/29 06:30:34;;;;;;;2.50;1.50;;;;;;;8.57;83.97;99965.59;7397429;19;20070;-71
2022/12/29 06:33:03;;;;;;;3.13;1.40;;;;;;;8.56;84.59;99972.56;7396096;19;20017;-71
2022/12/29 06:35:31;;;;;;;2.10;1.00;;;;;;;8.55;85.26;99972.63;7395590;19;20078;-70
2022/12/29 06:38:00;;;;;;;1.30;1.10;;;;;;;8.54;85.37;99974.34;7394500;19;20482;-70
2022/12/29 06:40:31;;;;;;;2.25;1.55;;;;;;;8.53;84.62;99972.66;7396018;19;20377;-71
2022/12/29 06:42:59;;;;;;;1.48;1.27;;;;;;;8.52;84.63;99968.31;7395892;19;20011;-71
2022/12/29 06:45:27;;;;;;;2.05;1.17;;;;;;;8.51;84.59;99976.22;7395297;19;20426;-71
2022/12/29 06:47:56;;;;;;;2.35;1.05;;;;;;;8.53;85.24;99977.88;7396700;19;20086;-71
2022/12/29 06:50:24;;;;;;;2.75;1.10;;;;;;;8.54;84.07;99978.72;7395640;19;20078;-71
2022/12/29 06:52:53;;;;;;;1.95;1.17;;;;;;;8.60;85.22;99973.34;7395786;19;20027;-71
2022/12/29 06:55:22;;;;;;;2.92;1.38;;;;;;;8.64;85.30;99964.53;7395674;19;20028;-71
2022/12/29 06:57:53;;;;;;;2.83;1.40;;;;;;;8.68;85.25;99970.53;7395626;19;20014;-71
2022/12/29 07:00:21;;;;;;;2.53;1.80;;;;;;;8.71;84.82;99973.09;7396335;19;20014;-71
2022/12/29 07:02:50;;;;;;;3.65;1.95;;;;;;;8.73;85.05;99979.13;7395277;19;20078;-71
2022/12/29 07:05:18;;;;;;;3.28;2.20;;;;;;;8.73;84.91;99976.50;7395114;19;20101;-71
2022/12/29 07:07:47;;;;;;;4.45;1.65;;;;;;;8.72;84.99;99972.16;7395758;19;20095;-71
2022/12/29 07:10:15;;;;;;;2.95;1.88;;;;;;;8.73;84.88;99981.72;7393760;19;20018;-71
2022/12/29 07:12:43;;;;;;;2.25;1.70;;;;;;;8.72;84.80;99983.50;7394977;19;20014;-71
2022/12/29 07:15:15;;;;;;;3.47;2.30;;;;;;;8.72;85.01;99982.63;7394792;19;20485;-71
2022/12/29 07:17:43;;;;;;;2.78;2.20;;;;;;;8.72;85.47;99982.63;7394457;19;20026;-71
2022/12/29 07:20:12;;;;;;;3.67;2.13;;;;;;;8.71;85.54;99991.38;7394822;19;20588;-71
2022/12/29 07:22:41;;;;;;;3.53;2.10;;;;;;;8.70;84.97;99980.06;7393391;19;20095;-71
2022/12/29 07:25:10;;;;;;;1.95;1.40;;;;;;;8.70;84.09;99985.28;7394391;19;20070;-70
2022/12/29 07:27:39;;;;;;;4.00;1.40;;;;;;;8.70;85.05;99992.28;7395412;19;20085;-70
2022/12/29 07:30:08;;;;;;;6.07;3.15;;;;;;;8.70;85.18;100000.13;7394534;19;20024;-71
2022/12/29 07:32:39;;;;;;;3.40;2.10;;;;;;;8.71;85.63;100014.94;7394324;19;20082;-71
2022/12/29 07:35:09;;;;;;;2.17;1.27;;;;;;;8.67;85.31;100006.28;7392059;19;20021;-71
2022/12/29 07:37:37;;;;;;;1.67;1.10;;;;;;;8.70;85.02;100015.81;7394722;19;20014;-71
2022/12/29 07:40:07;;;;;;;3.50;2.03;;;;;;;8.68;85.33;100007.16;7392548;19;20074;-71
2022/12/29 07:42:35;;;;;;;2.38;1.40;;;;;;;8.69;85.22;100006.25;7392572;19;20015;-71
2022/12/29 07:45:04;;;;;;;1.83;1.60;;;;;;;8.67;85.71;100006.28;7394082;19;20086;-71
2022/12/29 07:47:32;;;;;;;1.80;1.30;;;;;;;8.67;85.72;100006.28;7394637;19;20082;-72
2022/12/29 07:50:03;;;;;;;3.50;1.50;;;;;;;8.67;85.32;100008.03;7394014;19;20499;-71
2022/12/29 07:52:32;;;;;;;4.63;2.08;;;;;;;8.68;85.53;100009.75;7391370;19;20481;-70
2022/12/29 07:55:00;;;;;;;1.90;1.70;;;;;;;8.68;85.63;100010.63;7391650;19;20018;-70
2022/12/29 07:57:29;;;;;;;3.08;2.03;;;;;;;8.71;85.25;100012.31;7394069;19;20006;-70
2022/12/29 07:59:57;;;;;;;1.92;1.30;;;;;;;8.73;85.68;100006.16;7392019;19;20026;-69
2022/12/29 08:02:26;;;;;;;3.80;2.00;;;;;;;8.75;85.78;99998.25;7394071;19;20078;-70
2022/12/29 08:04:54;;;;;;;1.83;1.70;;;;;;;8.77;86.01;99993.81;7391414;19;20091;-70
2022/12/29 08:07:25;;;;;;;6.70;2.83;;;;;;;8.78;85.39;99996.41;7391344;19;20442;-70
2022/12/29 08:09:53;;;;;;;4.20;3.15;;;;;;;8.79;85.85;99986.81;7394203;19;20094;-72
2022/12/29 08:12:22;;;;;;;4.30;3.15;;;;;;;8.81;85.41;99987.63;7393519;19;20011;-70
2022/12/29 08:14:50;;;;;;;4.70;3.45;;;;;;;8.84;85.47;99978.84;7391487;19;20018;-72
2022/12/29 08:17:19;;;;;;;5.97;2.83;;;;;;;8.85;85.22;99965.72;7391206;19;20082;-71
2022/12/29 08:19:47;;;;;;;4.50;2.67;;;;;;;8.84;85.06;99950.06;7393473;19;20024;-71
2022/12/29 08:22:16;;;;;;;2.88;1.77;;;;;;;8.92;84.16;99975.13;7392929;19;20539;-72
2022/12/29 08:24:47;;;;;;;4.45;2.13;;;;;;;8.94;85.45;99975.91;7392608;19;20553;-71
2022/12/29 08:27:16;;;;;;;3.58;1.75;;;;;;;8.99;84.87;99981.03;7390369;19;20025;-71
2022/12/29 08:29:44;;;;;;;3.85;1.77;;;;;;;9.04;85.08;99988.75;7396459;19;20554;-70
2022/12/29 08:32:13;;;;;;;2.83;1.75;;;;;;;9.07;84.43;99994.78;7399952;19;20442;-71
2022/12/29 08:34:42;;;;;;;2.58;1.50;;;;;;;9.09;85.08;99995.56;7397072;19;20458;-71
2022/12/29 08:37:10;;;;;;;3.75;1.70;;;;;;;9.11;84.32;100000.75;7396750;19;20365;-70
2022/12/29 08:39:38;;;;;;;3.45;1.70;;;;;;;9.11;84.46;99988.56;7399808;19;20091;-71
2022/12/29 08:42:09;;;;;;;2.50;1.25;;;;;;;9.13;83.58;99999.81;7400116;19;20077;-71
2022/12/29 08:44:38;;;;;;;5.35;1.92;;;;;;;9.15;84.18;99989.31;7400144;19;20087;-71
2022/12/29 08:47:07;;;;;;;4.18;1.88;;;;;;;9.17;84.21;99991.91;7397401;19;20094;-70
2022/12/29 08:49:36;;;;;;;5.10;2.00;;;;;;;9.19;84.49;99983.09;7396954;19;20037;-70
2022/12/29 08:52:04;;;;;;;3.53;1.58;;;;;;;9.21;84.67;99986.53;7399742;19;20077;-70
2022/12/29 08:54:32;;;;;;;2.20;1.30;;;;;;;9.22;84.72;99998.69;7398236;19;20018;-70
2022/12/29 08:57:01;;;;;;;1.77;1.40;;;;;;;9.25;84.68;99989.91;7397042;19;20436;-70
2022/12/29 08:59:32;;;;;;;3.22;1.98;;;;;;;9.27;84.11;99986.34;7400011;19;20018;-70
2022/12/29 09:02:01;;;;;;;2.45;1.40;;;;;;;9.28;84.51;99985.44;7399185;19;20082;-71
2022/12/29 09:04:30;;;;;;;3.63;1.52;;;;;;;9.32;85.28;99990.59;7398757;19;20014;-71
2022/12/29 09:06:58;;;;;;;1.70;1.02;;;;;;;9.33;84.94;99979.25;7396886;19;20078;-69
2022/12/29 09:09:26;;;;;;;2.38;1.75;;;;;;;9.35;83.80;99982.66;7399175;19;20098;-71
2022/12/29 09:11:55;;;;;;;2.20;1.30;;;;;;;9.36;83.28;99981.75;7399316;19;20025;-71
2022/12/29 09:14:23;;;;;;;3.05;1.30;;;;;;;9.40;84.62;99986.88;7398737;19;20086;-72
2022/12/29 09:19:38;;;;;;;2.30;1.30;;;;;;;9.46;84.15;99985.81;7399161;19;20025;-72
2022/12/29 09:22:07;;;;;;;2.97;1.48;;;;;;;9.48;83.18;99986.66;7398735;19;20082;-72
2022/12/29 09:24:35;;;;;;;3.47;1.38;;;;;;;9.53;83.95;99995.22;7398690;19;20022;-71
2022/12/29 09:27:03;;;;;;;2.15;1.30;;;;;;;9.59;84.09;100000.28;7396642;19;20017;-71
2022/12/29 09:29:32;;;;;;;2.03;1.45;;;;;;;9.63;84.33;99987.94;7396381;19;20014;-71
2022/12/29 09:32:03;;;;;;;3.25;1.35;;;;;;;9.68;83.96;99980.81;7398156;19;20098;-72
2022/12/29 09:34:31;;;;;;;2.05;1.08;;;;;;;9.72;83.19;99977.19;7396406;19;20010;-70
2022/12/29 09:37:00;;;;;;;2.38;1.15;;;;;;;9.75;84.03;99974.47;7396604;19;20070;-71
2022/12/29 09:39:28;;;;;;;1.85;1.30;;;;;;;9.78;83.73;99971.75;7395407;19;20078;-71
2022/12/29 09:42:04;;;;;;;3.20;1.10;;;;;;;9.83;83.67;99976.00;7396298;19;20086;-71
2022/12/29 09:44:48;;;;;;;2.78;1.10;;;;;;;9.87;84.25;99975.00;7398987;19;20022;-70
2022/12/29 09:47:22;;;;;;;4.97;1.10;;;;;;;9.87;83.25;99973.25;7396481;19;20082;-70
2022/12/29 09:49:55;;;;;;;2.10;1.25;;;;;;;9.89;82.68;99971.41;7398728;19;20093;-71
2022/12/29 09:52:29;;;;;;;2.80;1.25;;;;;;;9.93;84.07;99977.41;7398591;19;20078;-73
2022/12/29 09:54:59;;;;;;;;;;;;;;;9.94;80.88;99974.78;7398159;19;20014;-72
2022/12/29 09:57:31;;;;;;;6.38;1.60;;;;;;;9.97;83.43;99968.59;7397355;19;19981;-72
2022/12/29 10:00:05;;;;;;;1.35;1.02;;;;;;;9.99;82.66;99977.22;7398594;19;20075;-71
2022/12/29 10:02:40;;;;;;;2.08;1.27;;;;;;;10.03;80.28;99978.00;7395926;19;20015;-71
2022/12/29 10:05:21;;;;;;;2.10;1.10;;;;;;;10.06;80.97;99986.63;7396676;19;20006;-71
2022/12/29 10:08:03;;;;;;;2.88;1.45;;;;;;;10.10;82.58;99975.13;7397978;19;20411;-72
2022/12/29 10:10:40;;;;;;;2.35;1.17;;;;;;;10.16;82.94;99989.81;7395627;19;20087;-71
2022/12/29 10:13:22;;;;;;;3.90;1.40;;;;;;;10.20;80.56;99983.56;7396572;19;20549;-73
2022/12/29 10:16:00;;;;;;;2.25;1.27;;;;;;;10.25;81.12;99984.25;7395460;19;20019;-71
2022/12/29 10:19:02;;;;;;;3.30;0.93;;;;;;;10.33;80.95;99977.91;7397356;19;20073;-71
2022/12/29 10:21:41;;;;;;;1.52;1.10;;;;;;;10.39;80.08;99969.88;7395013;19;20022;-71
2022/12/29 10:24:14;;;;;;;2.70;1.52;;;;;;;10.43;79.05;99972.34;7395284;19;20419;-71
2022/12/29 10:26:44;;;;;;;2.25;1.20;;;;;;;10.50;81.72;99962.50;7395210;19;20010;-71
2022/12/29 10:29:19;;;;;;;2.10;1.00;;;;;;;10.57;80.33;99961.38;7395988;19;20078;-72
2022/12/29 10:31:51;;;;;;;1.73;1.15;;;;;;;10.64;81.75;99958.53;7396968;19;20015;-71
2022/12/29 10:34:27;;;;;;;3.72;1.20;;;;;;;10.71;79.16;99958.28;7395685;19;20010;-70
2022/12/29 10:37:02;;;;;;;1.95;1.13;;;;;;;10.77;79.58;99965.09;7394473;19;20090;-70
2022/12/29 10:39:36;;;;;;;3.33;1.40;;;;;;;10.84;79.47;99963.97;7396946;19;20077;-71
2022/12/29 10:42:13;;;;;;;2.45;1.30;;;;;;;10.89;76.75;99980.41;7395429;19;20041;-72
2022/12/29 10:44:42;;;;;;;6.07;1.30;;;;;;;10.94;79.82;99974.13;7396639;19;20078;-71
2022/12/29 10:47:17;;;;;;;2.22;1.20;;;;;;;10.98;78.97;99959.97;7397634;19;20015;-71
2022/12/29 10:49:50;;;;;;;1.77;0.88;;;;;;;10.99;78.43;99951.19;7397338;19;20097;-71
2022/12/29 10:52:21;;;;;;;2.75;1.40;;;;;;;11.03;79.95;99963.28;7394199;19;20557;-74
2022/12/29 10:54:54;;;;;;;2.55;1.10;;;;;;;11.06;79.13;99956.16;7394683;19;20033;-71
2022/12/29 10:57:30;;;;;;;4.53;1.30;;;;;;;11.12;79.79;99956.84;7393764;19;20090;-71
2022/12/29 10:59:58;;;;;;;2.15;1.30;;;;;;;11.15;80.30;99946.25;7396180;19;20417;-71
2022/12/29 11:02:56;;;;;;;5.40;1.35;;;;;;;11.13;76.14;99946.28;7395603;19;20010;-71
2022/12/29 11:05:34;;;;;;;2.97;1.27;;;;;;;11.17;77.94;99942.66;7395051;19;20074;-71
2022/12/29 11:08:07;;;;;;;11.40;3.28;;;;;;;11.18;79.22;99941.72;7395902;19;20014;-71
2022/12/29 11:10:40;;;;;;;5.18;1.70;;;;;;;11.23;78.24;99944.19;7395238;19;20027;-71
2022/12/29 11:13:15;;;;;;;6.88;1.85;;;;;;;11.26;77.17;99928.34;7395580;19;20010;-71
2022/12/29 11:15:45;;;;;;;2.65;1.27;;;;;;;11.31;78.72;99925.50;7394692;19;20025;-71
2022/12/29 11:18:23;;;;;;;2.60;1.02;;;;;;;11.35;78.96;99929.75;7395041;19;20041;-71
2022/12/29 11:20:58;;;;;;;2.78;1.33;;;;;;;11.37;78.98;99920.03;7395440;19;20021;-71
2022/12/29 11:23:32;;;;;;;2.47;1.08;;;;;;;11.40;78.42;99925.19;7395453;19;20359;-71
2022/12/29 11:26:17;;;;;;;2.33;1.30;;;;;;;11.42;76.54;99920.72;7393526;19;20081;-71
2022/12/29 11:28:46;;;;;;;;;;;;;;;11.45;74.01;99922.34;7396250;19;20085;-71
2022/12/29 11:31:20;;;;;;;2.15;1.02;;;;;;;11.46;75.65;99924.94;7392890;19;19922;-71
2022/12/29 11:33:48;;;;;;;2.17;1.10;;;;;;;11.47;76.87;99916.13;7393018;19;20018;-71
2022/12/29 11:36:23;;;;;;;3.40;1.40;;;;;;;11.49;77.03;99910.84;7392115;19;20014;-72
2022/12/29 11:38:54;;;;;;;2.78;1.10;;;;;;;11.51;78.22;99909.00;7394898;19;20078;-71
2022/12/29 11:41:25;;;;;;;4.78;1.58;;;;;;;11.51;77.62;99915.13;7395105;19;20090;-71
2022/12/29 11:43:56;;;;;;;1.90;1.30;;;;;;;11.53;78.31;99909.81;7394790;19;20021;-72
2022/12/29 11:46:28;;;;;;;2.10;1.42;;;;;;;11.55;77.57;99910.56;7392834;19;20430;-71
2022/12/29 11:49:00;;;;;;;3.10;1.50;;;;;;;11.58;78.51;99903.44;7394938;19;20090;-72
2022/12/29 11:51:50;;;;;;;3.05;1.50;;;;;;;11.61;77.13;99901.63;7394733;19;20020;-71
2022/12/29 11:54:30;;;;;;;2.58;1.13;;;;;;;11.62;78.04;99904.16;7391831;19;20078;-72
2022/12/29 11:57:00;;;;;;;2.30;1.20;;;;;;;11.64;78.07;99906.72;7391387;19;20520;-71
2022/12/29 11:59:42;;;;;;;4.95;1.90;;;;;;;11.64;75.11;99904.97;7393940;19;20070;-70
2022/12/29 12:02:29;;;;;;;2.13;1.30;;;;;;;11.64;74.30;99904.09;7394393;19;20022;-71
2022/12/29 12:05:05;;;;;;;4.43;1.77;;;;;;;11.63;76.28;99911.16;7398097;19;20370;-71
2022/12/29 12:07:42;;;;;;;3.33;1.10;;;;;;;11.61;73.91;99907.72;7401324;19;20385;-71
2022/12/29 12:10:19;;;;;;;2.20;1.02;;;;;;;11.64;75.40;99906.72;7401567;19;20014;-72
2022/12/29 12:12:52;;;;;;;1.58;1.25;;;;;;;11.65;74.41;99911.06;7400435;19;20553;-72
2022/12/29 12:15:26;;;;;;;1.85;0.77;;;;;;;11.65;72.63;99913.69;7400350;19;20092;-71
2022/12/29 12:17:59;;;;;;;2.80;1.38;;;;;;;11.68;75.35;99914.44;7398823;19;20086;-71
2022/12/29 12:20:37;;;;;;;4.00;1.83;;;;;;;11.70;73.80;99933.66;7400696;19;20020;-72
2022/12/29 12:23:18;;;;;;;1.77;1.27;;;;;;;11.70;71.97;99925.75;7400265;19;20082;-71
2022/12/29 12:25:54;;;;;;;4.13;1.00;;;;;;;11.71;72.41;99931.84;7399197;19;20358;-71
2022/12/29 12:28:27;;;;;;;1.67;0.88;;;;;;;11.75;74.99;99928.19;7398634;19;20489;-71
2022/12/29 12:30:59;;;;;;;1.92;1.17;;;;;;;11.73;71.83;99925.63;7399825;19;20442;-71
2022/12/29 12:33:33;;;;;;;2.00;0.70;;;;;;;11.76;71.11;99923.81;7400287;19;20090;-72